sensor_id;sensor_type;location;lat;lon;timestamp;P1;durP1;ratioP1;P2;durP2;ratioP2
37455;SDS011;23316;50.718;7.328;2023-07-31T00:00:49;5.88;;;3.33;;
37455;SDS011;23316;50.718;7.328;2023-07-31T00:03:17;6.30;;;2.83;;
37455;SDS011;23316;50.718;7.328;2023-07-31T00:05:44;5.65;;;2.75;;
37455;SDS011;23316;50.718;7.328;2023-07-31T00:08:13;3.88;;;2.30;;
37455;SDS011;23316;50.718;7.328;2023-07-31T00:10:40;5.38;;;2.38;;
37455;SDS011;23316;50.718;7.328;2023-07-31T00:13:07;6.90;;;2.70;;
37455;SDS011;23316;50.718;7.328;2023-07-31T00:15:34;5.50;;;2.58;;
37455;SDS011;23316;50.718;7.328;2023-07-31T00:18:02;5.47;;;2.75;;
37455;SDS011;23316;50.718;7.328;2023-07-31T00:20:29;7.28;;;2.65;;
37455;SDS011;23316;50.718;7.328;2023-07-31T00:22:56;8.10;;;2.80;;
37455;SDS011;23316;50.718;7.328;2023-07-31T00:25:25;8.55;;;2.47;;
37455;SDS011;23316;50.718;7.328;2023-07-31T00:27:52;8.10;;;2.42;;
37455;SDS011;23316;50.718;7.328;2023-07-31T00:30:19;7.43;;;3.20;;
37455;SDS011;23316;50.718;7.328;2023-07-31T00:32:47;5.05;;;2.70;;
37455;SDS011;23316;50.718;7.328;2023-07-31T00:35:15;6.18;;;2.97;;
37455;SDS011;23316;50.718;7.328;2023-07-31T00:37:42;4.65;;;2.13;;
37455;SDS011;23316;50.718;7.328;2023-07-31T00:40:09;4.82;;;2.42;;
37455;SDS011;23316;50.718;7.328;2023-07-31T00:42:38;5.88;;;2.33;;
37455;SDS011;23316;50.718;7.328;2023-07-31T00:45:05;3.72;;;2.13;;
37455;SDS011;23316;50.718;7.328;2023-07-31T00:47:33;5.72;;;2.65;;
37455;SDS011;23316;50.718;7.328;2023-07-31T00:50:00;4.35;;;2.30;;
37455;SDS011;23316;50.718;7.328;2023-07-31T00:52:27;4.97;;;2.20;;
37455;SDS011;23316;50.718;7.328;2023-07-31T00:54:55;6.28;;;2.53;;
37455;SDS011;23316;50.718;7.328;2023-07-31T00:57:22;3.88;;;2.35;;
37455;SDS011;23316;50.718;7.328;2023-07-31T00:59:50;4.80;;;2.45;;
37455;SDS011;23316;50.718;7.328;2023-07-31T01:02:18;5.20;;;2.50;;
37455;SDS011;23316;50.718;7.328;2023-07-31T01:04:45;3.47;;;2.10;;
37455;SDS011;23316;50.718;7.328;2023-07-31T01:07:16;3.47;;;2.20;;
37455;SDS011;23316;50.718;7.328;2023-07-31T01:09:49;6.03;;;2.53;;
37455;SDS011;23316;50.718;7.328;2023-07-31T01:12:23;3.50;;;1.83;;
37455;SDS011;23316;50.718;7.328;2023-07-31T01:14:54;4.70;;;2.38;;
37455;SDS011;23316;50.718;7.328;2023-07-31T01:17:29;4.18;;;2.08;;
37455;SDS011;23316;50.718;7.328;2023-07-31T01:19:57;3.75;;;2.20;;
37455;SDS011;23316;50.718;7.328;2023-07-31T01:22:30;6.22;;;2.53;;
37455;SDS011;23316;50.718;7.328;2023-07-31T01:25:15;5.38;;;2.47;;
37455;SDS011;23316;50.718;7.328;2023-07-31T01:27:53;3.92;;;2.10;;
37455;SDS011;23316;50.718;7.328;2023-07-31T01:30:27;6.80;;;2.38;;
37455;SDS011;23316;50.718;7.328;2023-07-31T01:32:59;6.10;;;2.63;;
37455;SDS011;23316;50.718;7.328;2023-07-31T01:35:32;4.50;;;2.30;;
37455;SDS011;23316;50.718;7.328;2023-07-31T01:37:59;4.60;;;2.00;;
37455;SDS011;23316;50.718;7.328;2023-07-31T01:40:28;4.50;;;2.17;;
37455;SDS011;23316;50.718;7.328;2023-07-31T01:42:56;5.00;;;2.45;;
37455;SDS011;23316;50.718;7.328;2023-07-31T01:45:24;6.13;;;2.65;;
37455;SDS011;23316;50.718;7.328;2023-07-31T01:47:51;6.57;;;2.10;;
37455;SDS011;23316;50.718;7.328;2023-07-31T01:50:18;6.45;;;2.33;;
37455;SDS011;23316;50.718;7.328;2023-07-31T01:52:45;7.05;;;2.45;;
37455;SDS011;23316;50.718;7.328;2023-07-31T01:55:13;6.38;;;2.55;;
37455;SDS011;23316;50.718;7.328;2023-07-31T01:57:40;3.22;;;1.83;;
37455;SDS011;23316;50.718;7.328;2023-07-31T02:00:09;5.45;;;2.22;;
37455;SDS011;23316;50.718;7.328;2023-07-31T02:02:37;6.15;;;2.20;;
37455;SDS011;23316;50.718;7.328;2023-07-31T02:05:04;5.05;;;2.45;;
37455;SDS011;23316;50.718;7.328;2023-07-31T02:07:32;7.65;;;2.50;;
37455;SDS011;23316;50.718;7.328;2023-07-31T02:09:59;4.70;;;2.15;;
37455;SDS011;23316;50.718;7.328;2023-07-31T02:12:27;4.93;;;2.50;;
37455;SDS011;23316;50.718;7.328;2023-07-31T02:14:56;6.10;;;2.72;;
37455;SDS011;23316;50.718;7.328;2023-07-31T02:17:24;5.32;;;2.50;;
37455;SDS011;23316;50.718;7.328;2023-07-31T02:19:52;5.25;;;2.33;;
37455;SDS011;23316;50.718;7.328;2023-07-31T02:22:19;4.45;;;2.33;;
37455;SDS011;23316;50.718;7.328;2023-07-31T02:24:47;5.65;;;2.72;;
37455;SDS011;23316;50.718;7.328;2023-07-31T02:27:14;7.07;;;2.78;;
37455;SDS011;23316;50.718;7.328;2023-07-31T02:29:41;6.90;;;2.60;;
37455;SDS011;23316;50.718;7.328;2023-07-31T02:32:09;5.75;;;2.65;;
37455;SDS011;23316;50.718;7.328;2023-07-31T02:34:37;7.40;;;2.80;;
37455;SDS011;23316;50.718;7.328;2023-07-31T02:37:05;5.45;;;2.50;;
37455;SDS011;23316;50.718;7.328;2023-07-31T02:39:32;5.28;;;2.67;;
37455;SDS011;23316;50.718;7.328;2023-07-31T02:41:59;6.28;;;2.88;;
37455;SDS011;23316;50.718;7.328;2023-07-31T02:44:27;5.15;;;2.28;;
37455;SDS011;23316;50.718;7.328;2023-07-31T02:46:54;3.42;;;2.20;;
37455;SDS011;23316;50.718;7.328;2023-07-31T02:49:21;6.15;;;2.88;;
37455;SDS011;23316;50.718;7.328;2023-07-31T02:51:50;6.22;;;2.80;;
37455;SDS011;23316;50.718;7.328;2023-07-31T02:54:17;7.90;;;3.03;;
37455;SDS011;23316;50.718;7.328;2023-07-31T02:56:46;7.18;;;2.83;;
37455;SDS011;23316;50.718;7.328;2023-07-31T02:59:13;7.40;;;2.28;;
37455;SDS011;23316;50.718;7.328;2023-07-31T03:01:41;6.60;;;2.83;;
37455;SDS011;23316;50.718;7.328;2023-07-31T03:04:08;6.68;;;3.03;;
37455;SDS011;23316;50.718;7.328;2023-07-31T03:06:36;5.45;;;2.60;;
37455;SDS011;23316;50.718;7.328;2023-07-31T03:09:04;6.63;;;3.00;;
37455;SDS011;23316;50.718;7.328;2023-07-31T03:11:31;6.15;;;3.00;;
37455;SDS011;23316;50.718;7.328;2023-07-31T03:13:59;4.88;;;2.63;;
37455;SDS011;23316;50.718;7.328;2023-07-31T03:16:26;9.95;;;3.20;;
37455;SDS011;23316;50.718;7.328;2023-07-31T03:18:54;8.18;;;2.85;;
37455;SDS011;23316;50.718;7.328;2023-07-31T03:21:21;6.30;;;2.75;;
37455;SDS011;23316;50.718;7.328;2023-07-31T03:23:48;5.32;;;3.08;;
37455;SDS011;23316;50.718;7.328;2023-07-31T03:26:17;7.00;;;2.75;;
37455;SDS011;23316;50.718;7.328;2023-07-31T03:28:44;7.10;;;3.13;;
37455;SDS011;23316;50.718;7.328;2023-07-31T03:31:12;5.05;;;2.78;;
37455;SDS011;23316;50.718;7.328;2023-07-31T03:33:39;7.28;;;2.83;;
37455;SDS011;23316;50.718;7.328;2023-07-31T03:36:06;3.15;;;2.38;;
37455;SDS011;23316;50.718;7.328;2023-07-31T03:38:34;5.93;;;2.58;;
37455;SDS011;23316;50.718;7.328;2023-07-31T03:41:01;5.22;;;2.65;;
37455;SDS011;23316;50.718;7.328;2023-07-31T03:43:33;6.00;;;2.67;;
37455;SDS011;23316;50.718;7.328;2023-07-31T03:46:00;9.52;;;2.95;;
37455;SDS011;23316;50.718;7.328;2023-07-31T03:48:28;6.45;;;3.05;;
37455;SDS011;23316;50.718;7.328;2023-07-31T03:50:55;5.85;;;2.53;;
37455;SDS011;23316;50.718;7.328;2023-07-31T03:53:22;5.78;;;3.03;;
37455;SDS011;23316;50.718;7.328;2023-07-31T03:55:50;9.13;;;3.17;;
37455;SDS011;23316;50.718;7.328;2023-07-31T03:58:17;5.50;;;2.50;;
37455;SDS011;23316;50.718;7.328;2023-07-31T04:00:46;4.85;;;2.53;;
37455;SDS011;23316;50.718;7.328;2023-07-31T04:03:13;4.28;;;2.35;;
37455;SDS011;23316;50.718;7.328;2023-07-31T04:05:41;9.55;;;2.90;;
37455;SDS011;23316;50.718;7.328;2023-07-31T04:08:09;5.07;;;2.63;;
37455;SDS011;23316;50.718;7.328;2023-07-31T04:10:36;6.85;;;2.80;;
37455;SDS011;23316;50.718;7.328;2023-07-31T04:13:03;5.00;;;2.63;;
37455;SDS011;23316;50.718;7.328;2023-07-31T04:15:30;7.30;;;2.90;;
37455;SDS011;23316;50.718;7.328;2023-07-31T04:17:59;5.75;;;3.20;;
37455;SDS011;23316;50.718;7.328;2023-07-31T04:20:26;6.28;;;2.85;;
37455;SDS011;23316;50.718;7.328;2023-07-31T04:22:54;6.05;;;2.80;;
37455;SDS011;23316;50.718;7.328;2023-07-31T04:25:21;8.10;;;2.47;;
37455;SDS011;23316;50.718;7.328;2023-07-31T04:27:48;5.00;;;2.78;;
37455;SDS011;23316;50.718;7.328;2023-07-31T04:30:16;4.97;;;2.65;;
37455;SDS011;23316;50.718;7.328;2023-07-31T04:32:43;6.15;;;3.10;;
37455;SDS011;23316;50.718;7.328;2023-07-31T04:35:12;6.00;;;3.33;;
37455;SDS011;23316;50.718;7.328;2023-07-31T04:37:39;7.30;;;3.42;;
37455;SDS011;23316;50.718;7.328;2023-07-31T04:40:07;6.85;;;2.65;;
37455;SDS011;23316;50.718;7.328;2023-07-31T04:42:35;5.53;;;2.60;;
37455;SDS011;23316;50.718;7.328;2023-07-31T04:45:02;5.43;;;2.22;;
37455;SDS011;23316;50.718;7.328;2023-07-31T04:47:30;6.18;;;3.03;;
37455;SDS011;23316;50.718;7.328;2023-07-31T04:49:57;9.35;;;2.95;;
37455;SDS011;23316;50.718;7.328;2023-07-31T04:52:26;8.82;;;2.97;;
37455;SDS011;23316;50.718;7.328;2023-07-31T04:54:53;6.75;;;2.60;;
37455;SDS011;23316;50.718;7.328;2023-07-31T04:57:21;7.93;;;2.97;;
37455;SDS011;23316;50.718;7.328;2023-07-31T04:59:48;6.65;;;2.55;;
37455;SDS011;23316;50.718;7.328;2023-07-31T05:02:15;6.20;;;2.88;;
37455;SDS011;23316;50.718;7.328;2023-07-31T05:04:43;4.28;;;2.63;;
37455;SDS011;23316;50.718;7.328;2023-07-31T05:07:10;5.25;;;2.30;;
37455;SDS011;23316;50.718;7.328;2023-07-31T05:09:38;4.53;;;2.80;;
37455;SDS011;23316;50.718;7.328;2023-07-31T05:12:06;4.65;;;2.45;;
37455;SDS011;23316;50.718;7.328;2023-07-31T05:14:34;9.30;;;3.10;;
37455;SDS011;23316;50.718;7.328;2023-07-31T05:17:04;7.05;;;2.72;;
37455;SDS011;23316;50.718;7.328;2023-07-31T05:19:31;5.32;;;2.80;;
37455;SDS011;23316;50.718;7.328;2023-07-31T05:21:59;6.45;;;2.83;;
37455;SDS011;23316;50.718;7.328;2023-07-31T05:24:26;6.07;;;2.85;;
37455;SDS011;23316;50.718;7.328;2023-07-31T05:26:55;5.32;;;2.78;;
37455;SDS011;23316;50.718;7.328;2023-07-31T05:29:22;8.45;;;3.30;;
37455;SDS011;23316;50.718;7.328;2023-07-31T05:31:49;6.07;;;3.08;;
37455;SDS011;23316;50.718;7.328;2023-07-31T05:34:16;5.70;;;2.65;;
37455;SDS011;23316;50.718;7.328;2023-07-31T05:36:44;5.13;;;2.47;;
37455;SDS011;23316;50.718;7.328;2023-07-31T05:39:11;6.53;;;2.78;;
37455;SDS011;23316;50.718;7.328;2023-07-31T05:41:38;5.55;;;2.50;;
37455;SDS011;23316;50.718;7.328;2023-07-31T05:44:07;5.47;;;2.70;;
37455;SDS011;23316;50.718;7.328;2023-07-31T05:46:34;5.32;;;2.80;;
37455;SDS011;23316;50.718;7.328;2023-07-31T05:49:02;4.68;;;2.67;;
37455;SDS011;23316;50.718;7.328;2023-07-31T05:51:29;5.43;;;2.40;;
37455;SDS011;23316;50.718;7.328;2023-07-31T05:53:56;5.40;;;3.03;;
37455;SDS011;23316;50.718;7.328;2023-07-31T05:56:23;4.68;;;2.67;;
37455;SDS011;23316;50.718;7.328;2023-07-31T05:58:52;3.08;;;2.30;;
37455;SDS011;23316;50.718;7.328;2023-07-31T06:01:21;4.30;;;2.80;;
37455;SDS011;23316;50.718;7.328;2023-07-31T06:03:48;5.22;;;3.05;;
37455;SDS011;23316;50.718;7.328;2023-07-31T06:06:15;6.53;;;3.28;;
37455;SDS011;23316;50.718;7.328;2023-07-31T06:08:43;6.00;;;3.05;;
37455;SDS011;23316;50.718;7.328;2023-07-31T06:11:10;6.18;;;3.05;;
37455;SDS011;23316;50.718;7.328;2023-07-31T06:13:37;6.18;;;3.63;;
37455;SDS011;23316;50.718;7.328;2023-07-31T06:16:04;6.40;;;3.05;;
37455;SDS011;23316;50.718;7.328;2023-07-31T06:18:33;4.57;;;2.80;;
37455;SDS011;23316;50.718;7.328;2023-07-31T06:21:00;5.20;;;2.72;;
37455;SDS011;23316;50.718;7.328;2023-07-31T06:23:27;9.52;;;3.88;;
37455;SDS011;23316;50.718;7.328;2023-07-31T06:25:55;7.22;;;3.47;;
37455;SDS011;23316;50.718;7.328;2023-07-31T06:28:23;9.18;;;3.13;;
37455;SDS011;23316;50.718;7.328;2023-07-31T06:30:54;6.13;;;3.03;;
37455;SDS011;23316;50.718;7.328;2023-07-31T06:33:22;4.35;;;2.67;;
37455;SDS011;23316;50.718;7.328;2023-07-31T06:35:51;5.18;;;3.15;;
37455;SDS011;23316;50.718;7.328;2023-07-31T06:38:18;5.10;;;2.92;;
37455;SDS011;23316;50.718;7.328;2023-07-31T06:40:48;8.68;;;3.28;;
37455;SDS011;23316;50.718;7.328;2023-07-31T06:43:16;8.10;;;3.00;;
37455;SDS011;23316;50.718;7.328;2023-07-31T06:45:43;4.13;;;2.65;;
37455;SDS011;23316;50.718;7.328;2023-07-31T06:48:11;5.20;;;2.55;;
37455;SDS011;23316;50.718;7.328;2023-07-31T06:50:38;8.85;;;2.90;;
37455;SDS011;23316;50.718;7.328;2023-07-31T06:53:07;6.85;;;3.00;;
37455;SDS011;23316;50.718;7.328;2023-07-31T06:55:34;5.38;;;2.97;;
37455;SDS011;23316;50.718;7.328;2023-07-31T06:58:01;5.85;;;2.95;;
37455;SDS011;23316;50.718;7.328;2023-07-31T07:00:29;4.20;;;2.78;;
37455;SDS011;23316;50.718;7.328;2023-07-31T07:02:56;5.65;;;3.10;;
37455;SDS011;23316;50.718;7.328;2023-07-31T07:05:23;7.28;;;3.17;;
37455;SDS011;23316;50.718;7.328;2023-07-31T07:07:51;4.63;;;3.00;;
37455;SDS011;23316;50.718;7.328;2023-07-31T07:10:20;6.22;;;2.80;;
37455;SDS011;23316;50.718;7.328;2023-07-31T07:12:47;8.00;;;3.20;;
37455;SDS011;23316;50.718;7.328;2023-07-31T07:15:15;11.98;;;3.90;;
37455;SDS011;23316;50.718;7.328;2023-07-31T07:17:42;5.88;;;2.72;;
37455;SDS011;23316;50.718;7.328;2023-07-31T07:20:10;7.53;;;3.47;;
37455;SDS011;23316;50.718;7.328;2023-07-31T07:22:37;5.95;;;3.15;;
37455;SDS011;23316;50.718;7.328;2023-07-31T07:25:05;5.78;;;3.05;;
37455;SDS011;23316;50.718;7.328;2023-07-31T07:27:34;6.93;;;3.13;;
37455;SDS011;23316;50.718;7.328;2023-07-31T07:30:02;6.78;;;3.05;;
37455;SDS011;23316;50.718;7.328;2023-07-31T07:32:30;8.50;;;3.90;;
37455;SDS011;23316;50.718;7.328;2023-07-31T07:34:57;7.28;;;3.28;;
37455;SDS011;23316;50.718;7.328;2023-07-31T07:37:24;6.38;;;3.10;;
37455;SDS011;23316;50.718;7.328;2023-07-31T07:39:52;5.57;;;3.13;;
37455;SDS011;23316;50.718;7.328;2023-07-31T07:42:19;8.25;;;3.40;;
37455;SDS011;23316;50.718;7.328;2023-07-31T07:44:48;7.07;;;2.85;;
37455;SDS011;23316;50.718;7.328;2023-07-31T07:47:15;7.15;;;3.85;;
37455;SDS011;23316;50.718;7.328;2023-07-31T07:49:42;5.78;;;3.45;;
37455;SDS011;23316;50.718;7.328;2023-07-31T07:52:10;6.53;;;3.40;;
37455;SDS011;23316;50.718;7.328;2023-07-31T07:54:37;9.20;;;4.03;;
37455;SDS011;23316;50.718;7.328;2023-07-31T07:57:04;8.43;;;3.42;;
37455;SDS011;23316;50.718;7.328;2023-07-31T07:59:32;9.70;;;4.07;;
37455;SDS011;23316;50.718;7.328;2023-07-31T08:02:00;10.02;;;4.07;;
37455;SDS011;23316;50.718;7.328;2023-07-31T08:04:27;9.45;;;4.40;;
37455;SDS011;23316;50.718;7.328;2023-07-31T08:06:55;9.90;;;3.90;;
37455;SDS011;23316;50.718;7.328;2023-07-31T08:09:22;7.90;;;3.45;;
37455;SDS011;23316;50.718;7.328;2023-07-31T08:11:49;11.40;;;3.95;;
37455;SDS011;23316;50.718;7.328;2023-07-31T08:14:16;6.85;;;3.67;;
37455;SDS011;23316;50.718;7.328;2023-07-31T08:16:44;8.98;;;3.30;;
37455;SDS011;23316;50.718;7.328;2023-07-31T08:19:12;9.63;;;4.28;;
37455;SDS011;23316;50.718;7.328;2023-07-31T08:21:40;10.50;;;4.10;;
37455;SDS011;23316;50.718;7.328;2023-07-31T08:24:07;6.68;;;3.63;;
37455;SDS011;23316;50.718;7.328;2023-07-31T08:26:34;7.45;;;3.85;;
37455;SDS011;23316;50.718;7.328;2023-07-31T08:29:02;6.75;;;3.75;;
37455;SDS011;23316;50.718;7.328;2023-07-31T08:31:29;7.82;;;3.30;;
37455;SDS011;23316;50.718;7.328;2023-07-31T08:33:56;6.15;;;3.78;;
37455;SDS011;23316;50.718;7.328;2023-07-31T08:36:25;9.38;;;4.00;;
37455;SDS011;23316;50.718;7.328;2023-07-31T08:38:52;6.20;;;3.40;;
37455;SDS011;23316;50.718;7.328;2023-07-31T08:41:20;7.60;;;3.83;;
37455;SDS011;23316;50.718;7.328;2023-07-31T08:43:47;5.95;;;3.50;;
37455;SDS011;23316;50.718;7.328;2023-07-31T08:46:17;6.97;;;3.40;;
37455;SDS011;23316;50.718;7.328;2023-07-31T08:48:45;6.10;;;3.45;;
37455;SDS011;23316;50.718;7.328;2023-07-31T08:51:13;5.90;;;3.00;;
37455;SDS011;23316;50.718;7.328;2023-07-31T08:53:42;3.95;;;2.60;;
37455;SDS011;23316;50.718;7.328;2023-07-31T08:56:10;7.95;;;3.20;;
37455;SDS011;23316;50.718;7.328;2023-07-31T08:58:40;6.00;;;3.28;;
37455;SDS011;23316;50.718;7.328;2023-07-31T09:01:08;5.18;;;2.95;;
37455;SDS011;23316;50.718;7.328;2023-07-31T09:03:36;6.57;;;3.85;;
37455;SDS011;23316;50.718;7.328;2023-07-31T09:06:05;6.40;;;3.30;;
37455;SDS011;23316;50.718;7.328;2023-07-31T09:08:33;4.80;;;3.05;;
37455;SDS011;23316;50.718;7.328;2023-07-31T09:11:03;6.55;;;2.88;;
37455;SDS011;23316;50.718;7.328;2023-07-31T09:13:30;7.40;;;3.38;;
37455;SDS011;23316;50.718;7.328;2023-07-31T09:15:58;5.63;;;2.80;;
37455;SDS011;23316;50.718;7.328;2023-07-31T09:18:26;5.07;;;2.75;;
37455;SDS011;23316;50.718;7.328;2023-07-31T09:21:02;5.45;;;3.25;;
37455;SDS011;23316;50.718;7.328;2023-07-31T09:23:42;5.95;;;3.25;;
37455;SDS011;23316;50.718;7.328;2023-07-31T09:26:13;4.65;;;2.42;;
37455;SDS011;23316;50.718;7.328;2023-07-31T09:31:31;8.27;;;3.75;;
37455;SDS011;23316;50.718;7.328;2023-07-31T09:33:59;5.32;;;2.92;;
37455;SDS011;23316;50.718;7.328;2023-07-31T09:36:28;6.55;;;2.90;;
37455;SDS011;23316;50.718;7.328;2023-07-31T09:38:58;3.67;;;2.45;;
37455;SDS011;23316;50.718;7.328;2023-07-31T09:41:31;6.85;;;2.88;;
37455;SDS011;23316;50.718;7.328;2023-07-31T09:44:02;6.45;;;3.22;;
37455;SDS011;23316;50.718;7.328;2023-07-31T09:46:30;4.70;;;2.90;;
37455;SDS011;23316;50.718;7.328;2023-07-31T09:49:04;5.68;;;2.72;;
37455;SDS011;23316;50.718;7.328;2023-07-31T09:51:36;8.68;;;2.90;;
37455;SDS011;23316;50.718;7.328;2023-07-31T09:54:09;5.68;;;2.78;;
37455;SDS011;23316;50.718;7.328;2023-07-31T09:56:40;9.73;;;3.65;;
37455;SDS011;23316;50.718;7.328;2023-07-31T09:59:10;6.30;;;3.15;;
37455;SDS011;23316;50.718;7.328;2023-07-31T10:01:39;7.10;;;2.88;;
37455;SDS011;23316;50.718;7.328;2023-07-31T10:04:08;8.02;;;2.88;;
37455;SDS011;23316;50.718;7.328;2023-07-31T10:06:38;4.82;;;2.47;;
37455;SDS011;23316;50.718;7.328;2023-07-31T10:09:07;8.05;;;3.28;;
37455;SDS011;23316;50.718;7.328;2023-07-31T10:11:37;6.13;;;2.95;;
37455;SDS011;23316;50.718;7.328;2023-07-31T10:14:09;7.88;;;2.78;;
37455;SDS011;23316;50.718;7.328;2023-07-31T10:16:37;6.20;;;2.88;;
37455;SDS011;23316;50.718;7.328;2023-07-31T10:19:06;6.55;;;2.70;;
37455;SDS011;23316;50.718;7.328;2023-07-31T10:21:34;7.07;;;3.20;;
37455;SDS011;23316;50.718;7.328;2023-07-31T10:24:03;7.70;;;3.03;;
37455;SDS011;23316;50.718;7.328;2023-07-31T10:26:31;5.75;;;2.40;;
37455;SDS011;23316;50.718;7.328;2023-07-31T10:29:01;7.28;;;3.15;;
37455;SDS011;23316;50.718;7.328;2023-07-31T10:31:28;4.80;;;2.50;;
37455;SDS011;23316;50.718;7.328;2023-07-31T10:33:56;5.60;;;2.60;;
37455;SDS011;23316;50.718;7.328;2023-07-31T10:36:25;4.25;;;2.47;;
37455;SDS011;23316;50.718;7.328;2023-07-31T10:38:54;6.05;;;2.30;;
37455;SDS011;23316;50.718;7.328;2023-07-31T10:41:28;4.78;;;2.75;;
37455;SDS011;23316;50.718;7.328;2023-07-31T10:44:01;7.00;;;2.88;;
37455;SDS011;23316;50.718;7.328;2023-07-31T10:46:28;5.88;;;2.83;;
37455;SDS011;23316;50.718;7.328;2023-07-31T10:48:58;7.00;;;2.75;;
37455;SDS011;23316;50.718;7.328;2023-07-31T10:51:33;4.97;;;2.72;;
37455;SDS011;23316;50.718;7.328;2023-07-31T10:54:10;4.20;;;2.70;;
37455;SDS011;23316;50.718;7.328;2023-07-31T10:56:38;5.32;;;2.13;;
37455;SDS011;23316;50.718;7.328;2023-07-31T10:59:08;5.00;;;2.42;;
37455;SDS011;23316;50.718;7.328;2023-07-31T11:01:50;7.38;;;2.50;;
37455;SDS011;23316;50.718;7.328;2023-07-31T11:04:21;7.65;;;2.50;;
37455;SDS011;23316;50.718;7.328;2023-07-31T11:06:56;4.95;;;2.10;;
37455;SDS011;23316;50.718;7.328;2023-07-31T11:11:53;3.03;;;2.00;;
37455;SDS011;23316;50.718;7.328;2023-07-31T11:14:22;5.30;;;2.40;;
37455;SDS011;23316;50.718;7.328;2023-07-31T11:16:50;7.40;;;2.22;;
37455;SDS011;23316;50.718;7.328;2023-07-31T11:19:21;4.43;;;2.17;;
37455;SDS011;23316;50.718;7.328;2023-07-31T11:21:49;5.13;;;2.40;;
37455;SDS011;23316;50.718;7.328;2023-07-31T11:24:18;6.78;;;2.47;;
37455;SDS011;23316;50.718;7.328;2023-07-31T11:26:49;5.05;;;2.30;;
37455;SDS011;23316;50.718;7.328;2023-07-31T11:29:17;3.17;;;1.70;;
37455;SDS011;23316;50.718;7.328;2023-07-31T11:31:46;3.28;;;1.80;;
37455;SDS011;23316;50.718;7.328;2023-07-31T11:34:14;3.63;;;1.65;;
37455;SDS011;23316;50.718;7.328;2023-07-31T11:36:52;2.03;;;1.40;;
37455;SDS011;23316;50.718;7.328;2023-07-31T11:39:20;5.05;;;2.17;;
37455;SDS011;23316;50.718;7.328;2023-07-31T11:41:47;2.03;;;1.45;;
37455;SDS011;23316;50.718;7.328;2023-07-31T11:44:15;4.38;;;1.70;;
37455;SDS011;23316;50.718;7.328;2023-07-31T11:46:42;2.90;;;1.58;;
37455;SDS011;23316;50.718;7.328;2023-07-31T11:49:11;3.40;;;1.70;;
37455;SDS011;23316;50.718;7.328;2023-07-31T11:51:39;2.83;;;1.35;;
37455;SDS011;23316;50.718;7.328;2023-07-31T11:54:06;3.83;;;1.83;;
37455;SDS011;23316;50.718;7.328;2023-07-31T11:56:34;3.28;;;1.50;;
37455;SDS011;23316;50.718;7.328;2023-07-31T11:59:02;2.65;;;1.52;;
37455;SDS011;23316;50.718;7.328;2023-07-31T12:01:31;3.65;;;1.90;;
37455;SDS011;23316;50.718;7.328;2023-07-31T12:03:59;2.97;;;1.38;;
37455;SDS011;23316;50.718;7.328;2023-07-31T12:06:34;1.58;;;1.27;;
37455;SDS011;23316;50.718;7.328;2023-07-31T12:09:03;2.55;;;1.50;;
37455;SDS011;23316;50.718;7.328;2023-07-31T12:11:30;2.58;;;1.50;;
37455;SDS011;23316;50.718;7.328;2023-07-31T12:13:58;3.20;;;1.50;;
37455;SDS011;23316;50.718;7.328;2023-07-31T12:16:26;3.63;;;1.42;;
37455;SDS011;23316;50.718;7.328;2023-07-31T12:18:54;2.78;;;1.40;;
37455;SDS011;23316;50.718;7.328;2023-07-31T12:21:22;2.30;;;1.48;;
37455;SDS011;23316;50.718;7.328;2023-07-31T12:23:51;2.20;;;1.50;;
37455;SDS011;23316;50.718;7.328;2023-07-31T12:26:19;3.00;;;1.25;;
37455;SDS011;23316;50.718;7.328;2023-07-31T12:28:46;3.55;;;1.38;;
37455;SDS011;23316;50.718;7.328;2023-07-31T12:31:16;2.42;;;1.42;;
37455;SDS011;23316;50.718;7.328;2023-07-31T12:33:45;1.58;;;1.30;;
37455;SDS011;23316;50.718;7.328;2023-07-31T12:36:13;3.00;;;1.70;;
37455;SDS011;23316;50.718;7.328;2023-07-31T12:38:41;6.75;;;1.67;;
37455;SDS011;23316;50.718;7.328;2023-07-31T12:41:10;3.25;;;1.65;;
37455;SDS011;23316;50.718;7.328;2023-07-31T12:43:39;4.40;;;2.15;;
37455;SDS011;23316;50.718;7.328;2023-07-31T12:46:08;4.40;;;2.35;;
37455;SDS011;23316;50.718;7.328;2023-07-31T12:48:36;3.97;;;2.10;;
37455;SDS011;23316;50.718;7.328;2023-07-31T12:51:04;3.47;;;2.67;;
37455;SDS011;23316;50.718;7.328;2023-07-31T12:53:33;5.32;;;2.78;;
37455;SDS011;23316;50.718;7.328;2023-07-31T12:56:00;7.90;;;2.80;;
37455;SDS011;23316;50.718;7.328;2023-07-31T12:58:30;6.50;;;3.47;;
37455;SDS011;23316;50.718;7.328;2023-07-31T13:00:57;5.25;;;2.92;;
37455;SDS011;23316;50.718;7.328;2023-07-31T13:03:28;5.05;;;3.35;;
37455;SDS011;23316;50.718;7.328;2023-07-31T13:05:56;5.15;;;3.25;;
37455;SDS011;23316;50.718;7.328;2023-07-31T13:08:24;5.40;;;3.40;;
37455;SDS011;23316;50.718;7.328;2023-07-31T13:10:52;5.15;;;3.60;;
37455;SDS011;23316;50.718;7.328;2023-07-31T13:13:20;5.90;;;3.63;;
37455;SDS011;23316;50.718;7.328;2023-07-31T13:15:49;5.55;;;3.15;;
37455;SDS011;23316;50.718;7.328;2023-07-31T13:18:16;6.53;;;3.28;;
37455;SDS011;23316;50.718;7.328;2023-07-31T13:20:44;4.80;;;3.22;;
37455;SDS011;23316;50.718;7.328;2023-07-31T13:23:12;6.88;;;3.67;;
37455;SDS011;23316;50.718;7.328;2023-07-31T13:25:40;6.10;;;3.63;;
37455;SDS011;23316;50.718;7.328;2023-07-31T13:28:08;8.00;;;3.58;;
37455;SDS011;23316;50.718;7.328;2023-07-31T13:30:37;6.18;;;3.30;;
37455;SDS011;23316;50.718;7.328;2023-07-31T13:33:06;4.30;;;3.10;;
37455;SDS011;23316;50.718;7.328;2023-07-31T13:35:35;4.28;;;3.10;;
37455;SDS011;23316;50.718;7.328;2023-07-31T13:38:03;4.50;;;3.30;;
37455;SDS011;23316;50.718;7.328;2023-07-31T13:40:32;5.80;;;3.47;;
37455;SDS011;23316;50.718;7.328;2023-07-31T13:43:01;4.80;;;3.47;;
37455;SDS011;23316;50.718;7.328;2023-07-31T13:45:30;5.07;;;3.28;;
37455;SDS011;23316;50.718;7.328;2023-07-31T13:47:58;5.13;;;3.15;;
37455;SDS011;23316;50.718;7.328;2023-07-31T13:50:28;4.32;;;3.05;;
37455;SDS011;23316;50.718;7.328;2023-07-31T13:52:57;3.63;;;2.40;;
37455;SDS011;23316;50.718;7.328;2023-07-31T13:55:25;4.22;;;2.42;;
37455;SDS011;23316;50.718;7.328;2023-07-31T13:57:53;3.70;;;2.20;;
37455;SDS011;23316;50.718;7.328;2023-07-31T14:00:22;3.53;;;2.38;;
37455;SDS011;23316;50.718;7.328;2023-07-31T14:02:49;3.75;;;2.35;;
37455;SDS011;23316;50.718;7.328;2023-07-31T14:05:17;4.90;;;2.13;;
37455;SDS011;23316;50.718;7.328;2023-07-31T14:07:46;7.78;;;2.60;;
37455;SDS011;23316;50.718;7.328;2023-07-31T14:10:13;3.00;;;1.80;;
37455;SDS011;23316;50.718;7.328;2023-07-31T14:12:40;3.22;;;2.28;;
37455;SDS011;23316;50.718;7.328;2023-07-31T14:15:08;3.75;;;2.10;;
37455;SDS011;23316;50.718;7.328;2023-07-31T14:17:36;4.35;;;2.28;;
37455;SDS011;23316;50.718;7.328;2023-07-31T14:20:04;4.05;;;1.80;;
37455;SDS011;23316;50.718;7.328;2023-07-31T14:22:32;2.90;;;1.98;;
37455;SDS011;23316;50.718;7.328;2023-07-31T14:25:01;3.35;;;1.75;;
37455;SDS011;23316;50.718;7.328;2023-07-31T14:27:30;3.05;;;1.70;;
37455;SDS011;23316;50.718;7.328;2023-07-31T14:29:57;1.80;;;1.60;;
37455;SDS011;23316;50.718;7.328;2023-07-31T14:32:25;5.15;;;1.80;;
37455;SDS011;23316;50.718;7.328;2023-07-31T14:34:52;2.95;;;2.00;;
37455;SDS011;23316;50.718;7.328;2023-07-31T14:37:20;2.45;;;1.88;;
37455;SDS011;23316;50.718;7.328;2023-07-31T14:39:48;2.55;;;1.75;;
37455;SDS011;23316;50.718;7.328;2023-07-31T14:42:17;4.97;;;1.70;;
37455;SDS011;23316;50.718;7.328;2023-07-31T14:44:44;2.80;;;1.70;;
37455;SDS011;23316;50.718;7.328;2023-07-31T14:47:13;4.70;;;1.77;;
37455;SDS011;23316;50.718;7.328;2023-07-31T14:49:40;2.58;;;1.45;;
37455;SDS011;23316;50.718;7.328;2023-07-31T14:52:07;2.30;;;1.50;;
37455;SDS011;23316;50.718;7.328;2023-07-31T14:54:35;2.42;;;1.48;;
37455;SDS011;23316;50.718;7.328;2023-07-31T14:57:02;2.90;;;1.67;;
37455;SDS011;23316;50.718;7.328;2023-07-31T14:59:32;2.15;;;1.50;;